sensor_id;sensor_type;location;lat;lon;timestamp;P1;durP1;ratioP1;P2;durP2;ratioP2
32186;SDS011;18686;53.084;8.872;2023-12-20T03:26:00;41.88;;;6.60;;
32186;SDS011;18686;53.084;8.872;2023-12-20T03:28:31;35.33;;;6.22;;
32186;SDS011;18686;53.084;8.872;2023-12-20T03:31:00;40.88;;;6.07;;
32186;SDS011;18686;53.084;8.872;2023-12-20T03:33:29;36.33;;;5.95;;
32186;SDS011;18686;53.084;8.872;2023-12-20T03:35:58;45.38;;;7.03;;
32186;SDS011;18686;53.084;8.872;2023-12-20T03:38:26;38.88;;;6.78;;
32186;SDS011;18686;53.084;8.872;2023-12-20T03:40:54;46.20;;;6.97;;
32186;SDS011;18686;53.084;8.872;2023-12-20T03:43:24;46.42;;;7.45;;
32186;SDS011;18686;53.084;8.872;2023-12-20T03:45:52;50.80;;;7.70;;
32186;SDS011;18686;53.084;8.872;2023-12-20T03:48:20;28.00;;;6.50;;
32186;SDS011;18686;53.084;8.872;2023-12-20T03:50:49;48.03;;;7.38;;
32186;SDS011;18686;53.084;8.872;2023-12-20T03:53:17;46.72;;;8.02;;
32186;SDS011;18686;53.084;8.872;2023-12-20T03:55:45;38.55;;;7.40;;
32186;SDS011;18686;53.084;8.872;2023-12-20T03:58:13;62.28;;;10.82;;
32186;SDS011;18686;53.084;8.872;2023-12-20T04:00:43;50.63;;;10.25;;
32186;SDS011;18686;53.084;8.872;2023-12-20T04:03:11;63.15;;;11.70;;
32186;SDS011;18686;53.084;8.872;2023-12-20T04:05:40;57.75;;;11.55;;
32186;SDS011;18686;53.084;8.872;2023-12-20T04:08:09;63.70;;;11.82;;
32186;SDS011;18686;53.084;8.872;2023-12-20T04:10:37;40.85;;;9.45;;
32186;SDS011;18686;53.084;8.872;2023-12-20T04:13:06;52.97;;;10.27;;
32186;SDS011;18686;53.084;8.872;2023-12-20T04:15:34;67.60;;;10.82;;
32186;SDS011;18686;53.084;8.872;2023-12-20T04:18:04;57.67;;;11.55;;
32186;SDS011;18686;53.084;8.872;2023-12-20T04:20:33;67.50;;;10.50;;
32186;SDS011;18686;53.084;8.872;2023-12-20T04:23:01;49.88;;;10.15;;
32186;SDS011;18686;53.084;8.872;2023-12-20T04:25:32;66.15;;;13.43;;
32186;SDS011;18686;53.084;8.872;2023-12-20T04:28:01;74.68;;;12.52;;
32186;SDS011;18686;53.084;8.872;2023-12-20T04:30:29;61.35;;;11.95;;
32186;SDS011;18686;53.084;8.872;2023-12-20T04:32:57;47.13;;;9.82;;
32186;SDS011;18686;53.084;8.872;2023-12-20T04:35:27;52.17;;;11.30;;
32186;SDS011;18686;53.084;8.872;2023-12-20T04:37:55;40.92;;;12.05;;
32186;SDS011;18686;53.084;8.872;2023-12-20T04:40:23;60.33;;;11.75;;
32186;SDS011;18686;53.084;8.872;2023-12-20T04:42:52;60.15;;;11.45;;
32186;SDS011;18686;53.084;8.872;2023-12-20T04:45:20;62.92;;;13.70;;
32186;SDS011;18686;53.084;8.872;2023-12-20T04:47:50;68.50;;;14.48;;
32186;SDS011;18686;53.084;8.872;2023-12-20T04:50:18;85.30;;;14.18;;
32186;SDS011;18686;53.084;8.872;2023-12-20T04:52:49;87.65;;;15.45;;
32186;SDS011;18686;53.084;8.872;2023-12-20T04:55:18;75.53;;;15.93;;
32186;SDS011;18686;53.084;8.872;2023-12-20T04:57:46;65.53;;;15.70;;
32186;SDS011;18686;53.084;8.872;2023-12-20T05:00:15;75.60;;;16.75;;
32186;SDS011;18686;53.084;8.872;2023-12-20T05:02:43;84.10;;;16.67;;
32186;SDS011;18686;53.084;8.872;2023-12-20T05:05:12;65.85;;;16.10;;
32186;SDS011;18686;53.084;8.872;2023-12-20T05:07:41;71.72;;;15.85;;
32186;SDS011;18686;53.084;8.872;2023-12-20T05:10:11;74.82;;;15.93;;
32186;SDS011;18686;53.084;8.872;2023-12-20T05:12:40;76.15;;;16.30;;
32186;SDS011;18686;53.084;8.872;2023-12-20T05:15:09;77.05;;;15.88;;
32186;SDS011;18686;53.084;8.872;2023-12-20T05:17:37;54.22;;;14.93;;
32186;SDS011;18686;53.084;8.872;2023-12-20T05:20:06;69.65;;;14.38;;
32186;SDS011;18686;53.084;8.872;2023-12-20T05:22:35;62.83;;;13.27;;
32186;SDS011;18686;53.084;8.872;2023-12-20T05:25:04;72.50;;;12.82;;
32186;SDS011;18686;53.084;8.872;2023-12-20T05:27:34;62.72;;;11.48;;
32186;SDS011;18686;53.084;8.872;2023-12-20T05:30:03;72.07;;;13.25;;
32186;SDS011;18686;53.084;8.872;2023-12-20T05:32:31;79.78;;;13.10;;
32186;SDS011;18686;53.084;8.872;2023-12-20T05:35:00;62.78;;;13.65;;
32186;SDS011;18686;53.084;8.872;2023-12-20T05:37:28;63.83;;;11.82;;
32186;SDS011;18686;53.084;8.872;2023-12-20T05:39:57;52.08;;;10.88;;
32186;SDS011;18686;53.084;8.872;2023-12-20T05:42:25;67.25;;;13.07;;
32186;SDS011;18686;53.084;8.872;2023-12-20T05:44:55;65.65;;;13.23;;
32186;SDS011;18686;53.084;8.872;2023-12-20T05:47:24;62.25;;;12.20;;
32186;SDS011;18686;53.084;8.872;2023-12-20T05:49:53;68.60;;;13.43;;
32186;SDS011;18686;53.084;8.872;2023-12-20T05:52:21;65.88;;;11.05;;
32186;SDS011;18686;53.084;8.872;2023-12-20T05:54:50;71.30;;;11.35;;
32186;SDS011;18686;53.084;8.872;2023-12-20T05:57:18;73.63;;;11.95;;
32186;SDS011;18686;53.084;8.872;2023-12-20T05:59:46;62.72;;;11.48;;
32186;SDS011;18686;53.084;8.872;2023-12-20T06:02:16;74.18;;;13.18;;
32186;SDS011;18686;53.084;8.872;2023-12-20T06:04:44;52.40;;;10.40;;
32186;SDS011;18686;53.084;8.872;2023-12-20T06:07:13;58.38;;;10.80;;
32186;SDS011;18686;53.084;8.872;2023-12-20T06:09:43;54.30;;;11.15;;
32186;SDS011;18686;53.084;8.872;2023-12-20T06:12:13;68.55;;;10.75;;
32186;SDS011;18686;53.084;8.872;2023-12-20T06:14:41;59.75;;;11.00;;
32186;SDS011;18686;53.084;8.872;2023-12-20T06:17:10;68.70;;;11.27;;
32186;SDS011;18686;53.084;8.872;2023-12-20T06:19:40;57.38;;;9.82;;
32186;SDS011;18686;53.084;8.872;2023-12-20T06:22:11;61.83;;;10.18;;
32186;SDS011;18686;53.084;8.872;2023-12-20T06:24:39;65.78;;;10.93;;
32186;SDS011;18686;53.084;8.872;2023-12-20T06:27:08;75.45;;;11.60;;
32186;SDS011;18686;53.084;8.872;2023-12-20T06:29:36;85.78;;;11.55;;
32186;SDS011;18686;53.084;8.872;2023-12-20T06:32:05;64.82;;;10.90;;
32186;SDS011;18686;53.084;8.872;2023-12-20T06:34:33;67.60;;;10.93;;
32186;SDS011;18686;53.084;8.872;2023-12-20T06:37:03;62.17;;;11.43;;
32186;SDS011;18686;53.084;8.872;2023-12-20T06:39:31;68.78;;;12.00;;
32186;SDS011;18686;53.084;8.872;2023-12-20T06:42:00;70.57;;;12.25;;
32186;SDS011;18686;53.084;8.872;2023-12-20T06:44:29;63.47;;;12.40;;
32186;SDS011;18686;53.084;8.872;2023-12-20T06:47:01;83.93;;;13.30;;
32186;SDS011;18686;53.084;8.872;2023-12-20T06:49:29;59.40;;;10.52;;
32186;SDS011;18686;53.084;8.872;2023-12-20T06:51:57;64.50;;;10.32;;
32186;SDS011;18686;53.084;8.872;2023-12-20T06:54:27;68.05;;;10.38;;
32186;SDS011;18686;53.084;8.872;2023-12-20T06:56:55;70.78;;;11.95;;
32186;SDS011;18686;53.084;8.872;2023-12-20T06:59:23;65.15;;;10.48;;
32186;SDS011;18686;53.084;8.872;2023-12-20T07:01:52;60.47;;;10.48;;
32186;SDS011;18686;53.084;8.872;2023-12-20T07:04:20;75.03;;;11.98;;
32186;SDS011;18686;53.084;8.872;2023-12-20T07:06:49;60.55;;;11.57;;
32186;SDS011;18686;53.084;8.872;2023-12-20T07:09:20;75.28;;;12.70;;
32186;SDS011;18686;53.084;8.872;2023-12-20T07:11:50;75.25;;;12.57;;
32186;SDS011;18686;53.084;8.872;2023-12-20T07:14:18;74.95;;;13.65;;
32186;SDS011;18686;53.084;8.872;2023-12-20T07:16:46;70.00;;;11.73;;
32186;SDS011;18686;53.084;8.872;2023-12-20T07:19:14;81.28;;;13.45;;
32186;SDS011;18686;53.084;8.872;2023-12-20T07:21:43;69.75;;;12.35;;
32186;SDS011;18686;53.084;8.872;2023-12-20T07:24:11;68.43;;;11.70;;
32186;SDS011;18686;53.084;8.872;2023-12-20T07:26:41;53.60;;;11.60;;
32186;SDS011;18686;53.084;8.872;2023-12-20T07:29:10;59.20;;;11.00;;
32186;SDS011;18686;53.084;8.872;2023-12-20T07:31:39;88.97;;;13.93;;
32186;SDS011;18686;53.084;8.872;2023-12-20T07:34:08;60.72;;;11.07;;
32186;SDS011;18686;53.084;8.872;2023-12-20T07:36:37;70.20;;;12.30;;
32186;SDS011;18686;53.084;8.872;2023-12-20T07:39:05;61.88;;;11.98;;
32186;SDS011;18686;53.084;8.872;2023-12-20T07:41:34;87.50;;;13.43;;
32186;SDS011;18686;53.084;8.872;2023-12-20T07:44:04;82.20;;;12.85;;
32186;SDS011;18686;53.084;8.872;2023-12-20T07:46:34;69.88;;;13.77;;
32186;SDS011;18686;53.084;8.872;2023-12-20T07:49:04;70.82;;;13.43;;
32186;SDS011;18686;53.084;8.872;2023-12-20T07:51:33;64.95;;;12.35;;
32186;SDS011;18686;53.084;8.872;2023-12-20T07:54:01;64.22;;;10.73;;
32186;SDS011;18686;53.084;8.872;2023-12-20T07:56:31;54.50;;;11.27;;
32186;SDS011;18686;53.084;8.872;2023-12-20T07:59:01;60.67;;;12.60;;
32186;SDS011;18686;53.084;8.872;2023-12-20T08:01:30;79.65;;;12.73;;
32186;SDS011;18686;53.084;8.872;2023-12-20T08:04:01;63.13;;;11.50;;
32186;SDS011;18686;53.084;8.872;2023-12-20T08:06:29;68.10;;;12.23;;
32186;SDS011;18686;53.084;8.872;2023-12-20T08:08:58;82.82;;;11.65;;
32186;SDS011;18686;53.084;8.872;2023-12-20T08:11:32;64.55;;;13.43;;
32186;SDS011;18686;53.084;8.872;2023-12-20T08:14:00;79.88;;;13.05;;
32186;SDS011;18686;53.084;8.872;2023-12-20T08:16:28;63.72;;;12.27;;
32186;SDS011;18686;53.084;8.872;2023-12-20T08:18:57;73.97;;;12.23;;
32186;SDS011;18686;53.084;8.872;2023-12-20T08:21:27;68.72;;;11.30;;
32186;SDS011;18686;53.084;8.872;2023-12-20T08:23:55;86.68;;;12.75;;
32186;SDS011;18686;53.084;8.872;2023-12-20T08:26:23;70.80;;;11.10;;
32186;SDS011;18686;53.084;8.872;2023-12-20T08:28:52;57.22;;;9.85;;
32186;SDS011;18686;53.084;8.872;2023-12-20T08:31:22;66.85;;;11.70;;
32186;SDS011;18686;53.084;8.872;2023-12-20T08:33:50;80.47;;;11.90;;
32186;SDS011;18686;53.084;8.872;2023-12-20T08:36:20;58.03;;;9.40;;
32186;SDS011;18686;53.084;8.872;2023-12-20T08:38:51;54.88;;;10.73;;
32186;SDS011;18686;53.084;8.872;2023-12-20T08:41:19;55.33;;;10.75;;
32186;SDS011;18686;53.084;8.872;2023-12-20T08:43:48;61.28;;;10.02;;
32186;SDS011;18686;53.084;8.872;2023-12-20T08:46:16;72.20;;;10.80;;
32186;SDS011;18686;53.084;8.872;2023-12-20T08:48:44;61.85;;;10.23;;
32186;SDS011;18686;53.084;8.872;2023-12-20T08:51:13;49.95;;;9.77;;
32186;SDS011;18686;53.084;8.872;2023-12-20T08:53:41;38.03;;;8.73;;
32186;SDS011;18686;53.084;8.872;2023-12-20T08:56:13;57.58;;;10.70;;
32186;SDS011;18686;53.084;8.872;2023-12-20T08:58:41;47.53;;;10.35;;
32186;SDS011;18686;53.084;8.872;2023-12-20T09:01:09;50.65;;;9.13;;
32186;SDS011;18686;53.084;8.872;2023-12-20T09:03:38;52.35;;;8.98;;
32186;SDS011;18686;53.084;8.872;2023-12-20T09:06:07;58.05;;;10.02;;
32186;SDS011;18686;53.084;8.872;2023-12-20T09:08:35;53.10;;;9.95;;
32186;SDS011;18686;53.084;8.872;2023-12-20T09:11:03;55.92;;;9.38;;
32186;SDS011;18686;53.084;8.872;2023-12-20T09:13:33;60.72;;;10.98;;
32186;SDS011;18686;53.084;8.872;2023-12-20T09:16:02;49.28;;;10.20;;
32186;SDS011;18686;53.084;8.872;2023-12-20T09:18:31;44.08;;;9.35;;
32186;SDS011;18686;53.084;8.872;2023-12-20T09:20:59;52.58;;;9.20;;
32186;SDS011;18686;53.084;8.872;2023-12-20T09:23:28;64.25;;;11.48;;
32186;SDS011;18686;53.084;8.872;2023-12-20T09:25:56;62.20;;;11.48;;
32186;SDS011;18686;53.084;8.872;2023-12-20T09:28:25;56.95;;;11.50;;
32186;SDS011;18686;53.084;8.872;2023-12-20T09:30:55;64.88;;;12.82;;
32186;SDS011;18686;53.084;8.872;2023-12-20T09:33:24;63.42;;;12.43;;
32186;SDS011;18686;53.084;8.872;2023-12-20T09:35:52;46.45;;;9.82;;
32186;SDS011;18686;53.084;8.872;2023-12-20T09:38:21;56.17;;;11.77;;
32186;SDS011;18686;53.084;8.872;2023-12-20T09:40:50;57.13;;;12.05;;
32186;SDS011;18686;53.084;8.872;2023-12-20T09:43:19;73.75;;;13.38;;
32186;SDS011;18686;53.084;8.872;2023-12-20T09:45:48;64.72;;;11.82;;
32186;SDS011;18686;53.084;8.872;2023-12-20T09:48:22;66.18;;;13.07;;
32186;SDS011;18686;53.084;8.872;2023-12-20T09:50:51;58.88;;;12.48;;
32186;SDS011;18686;53.084;8.872;2023-12-20T09:53:19;59.38;;;10.93;;
32186;SDS011;18686;53.084;8.872;2023-12-20T09:55:57;34.88;;;6.00;;
32186;SDS011;18686;53.084;8.872;2023-12-20T09:58:27;33.45;;;5.10;;
32186;SDS011;18686;53.084;8.872;2023-12-20T10:00:55;24.50;;;5.10;;
32186;SDS011;18686;53.084;8.872;2023-12-20T10:03:25;20.77;;;3.47;;
32186;SDS011;18686;53.084;8.872;2023-12-20T10:05:55;19.95;;;3.33;;
32186;SDS011;18686;53.084;8.872;2023-12-20T10:08:25;23.95;;;3.80;;
32186;SDS011;18686;53.084;8.872;2023-12-20T10:10:53;30.50;;;4.10;;
32186;SDS011;18686;53.084;8.872;2023-12-20T10:13:24;25.33;;;3.70;;
32186;SDS011;18686;53.084;8.872;2023-12-20T10:15:52;15.63;;;2.40;;
32186;SDS011;18686;53.084;8.872;2023-12-20T10:18:25;11.63;;;3.20;;
32186;SDS011;18686;53.084;8.872;2023-12-20T10:21:05;17.25;;;2.88;;
32186;SDS011;18686;53.084;8.872;2023-12-20T10:23:34;15.10;;;2.80;;
32186;SDS011;18686;53.084;8.872;2023-12-20T10:26:02;9.95;;;1.80;;
32186;SDS011;18686;53.084;8.872;2023-12-20T10:28:33;17.45;;;2.88;;
32186;SDS011;18686;53.084;8.872;2023-12-20T10:31:02;16.27;;;2.50;;
32186;SDS011;18686;53.084;8.872;2023-12-20T10:33:32;20.08;;;2.47;;
32186;SDS011;18686;53.084;8.872;2023-12-20T10:36:01;13.35;;;1.98;;
32186;SDS011;18686;53.084;8.872;2023-12-20T10:38:30;16.73;;;2.35;;
32186;SDS011;18686;53.084;8.872;2023-12-20T10:40:58;15.88;;;2.75;;
32186;SDS011;18686;53.084;8.872;2023-12-20T10:43:28;15.18;;;2.15;;
32186;SDS011;18686;53.084;8.872;2023-12-20T10:45:59;6.40;;;1.80;;
32186;SDS011;18686;53.084;8.872;2023-12-20T10:48:32;15.55;;;2.67;;
32186;SDS011;18686;53.084;8.872;2023-12-20T10:51:02;15.07;;;2.42;;
32186;SDS011;18686;53.084;8.872;2023-12-20T10:53:32;10.85;;;2.15;;
32186;SDS011;18686;53.084;8.872;2023-12-20T10:56:03;11.90;;;1.73;;
32186;SDS011;18686;53.084;8.872;2023-12-20T10:58:33;10.90;;;1.63;;
32186;SDS011;18686;53.084;8.872;2023-12-20T11:01:03;19.30;;;2.80;;
32186;SDS011;18686;53.084;8.872;2023-12-20T11:03:34;15.75;;;1.52;;
32186;SDS011;18686;53.084;8.872;2023-12-20T11:06:07;14.15;;;1.55;;
32186;SDS011;18686;53.084;8.872;2023-12-20T11:08:43;30.17;;;2.75;;
32186;SDS011;18686;53.084;8.872;2023-12-20T11:11:17;14.43;;;1.42;;
32186;SDS011;18686;53.084;8.872;2023-12-20T11:13:54;10.38;;;1.35;;
32186;SDS011;18686;53.084;8.872;2023-12-20T11:16:26;4.97;;;1.00;;
32186;SDS011;18686;53.084;8.872;2023-12-20T11:19:11;4.90;;;1.75;;
32186;SDS011;18686;53.084;8.872;2023-12-20T11:21:42;9.45;;;1.40;;
32186;SDS011;18686;53.084;8.872;2023-12-20T11:24:10;4.18;;;1.17;;
32186;SDS011;18686;53.084;8.872;2023-12-20T11:26:39;10.00;;;1.52;;
32186;SDS011;18686;53.084;8.872;2023-12-20T11:29:31;5.85;;;1.08;;
32186;SDS011;18686;53.084;8.872;2023-12-20T11:34:58;8.48;;;1.60;;
32186;SDS011;18686;53.084;8.872;2023-12-20T11:37:28;6.20;;;1.25;;
32186;SDS011;18686;53.084;8.872;2023-12-20T11:40:00;4.40;;;1.05;;
32186;SDS011;18686;53.084;8.872;2023-12-20T11:42:32;7.65;;;1.80;;
32186;SDS011;18686;53.084;8.872;2023-12-20T11:45:01;7.45;;;1.50;;
32186;SDS011;18686;53.084;8.872;2023-12-20T11:47:31;5.93;;;1.40;;
32186;SDS011;18686;53.084;8.872;2023-12-20T11:50:01;8.13;;;1.48;;
32186;SDS011;18686;53.084;8.872;2023-12-20T11:52:31;8.38;;;1.85;;
32186;SDS011;18686;53.084;8.872;2023-12-20T11:55:00;11.02;;;2.60;;
32186;SDS011;18686;53.084;8.872;2023-12-20T11:57:28;7.10;;;1.50;;
32186;SDS011;18686;53.084;8.872;2023-12-20T11:59:56;9.18;;;1.85;;
32186;SDS011;18686;53.084;8.872;2023-12-20T12:02:25;7.47;;;1.60;;
32186;SDS011;18686;53.084;8.872;2023-12-20T12:04:53;8.65;;;1.83;;
32186;SDS011;18686;53.084;8.872;2023-12-20T12:07:24;8.35;;;1.50;;
32186;SDS011;18686;53.084;8.872;2023-12-20T12:09:53;8.38;;;1.80;;
32186;SDS011;18686;53.084;8.872;2023-12-20T12:12:21;7.57;;;1.52;;
32186;SDS011;18686;53.084;8.872;2023-12-20T12:14:51;8.07;;;1.80;;
32186;SDS011;18686;53.084;8.872;2023-12-20T12:17:20;11.85;;;1.70;;
32186;SDS011;18686;53.084;8.872;2023-12-20T12:19:49;9.15;;;2.20;;
32186;SDS011;18686;53.084;8.872;2023-12-20T12:22:18;12.25;;;2.78;;
32186;SDS011;18686;53.084;8.872;2023-12-20T12:24:48;9.50;;;2.00;;
32186;SDS011;18686;53.084;8.872;2023-12-20T12:27:17;11.02;;;1.88;;
32186;SDS011;18686;53.084;8.872;2023-12-20T12:29:59;12.13;;;2.10;;
32186;SDS011;18686;53.084;8.872;2023-12-20T12:32:29;7.30;;;1.40;;
32186;SDS011;18686;53.084;8.872;2023-12-20T12:34:57;12.65;;;1.77;;
32186;SDS011;18686;53.084;8.872;2023-12-20T12:37:26;11.13;;;1.90;;
32186;SDS011;18686;53.084;8.872;2023-12-20T12:39:55;11.60;;;1.88;;
32186;SDS011;18686;53.084;8.872;2023-12-20T12:42:25;12.82;;;1.92;;
32186;SDS011;18686;53.084;8.872;2023-12-20T12:44:55;18.85;;;2.90;;
32186;SDS011;18686;53.084;8.872;2023-12-20T12:47:23;15.70;;;1.77;;
32186;SDS011;18686;53.084;8.872;2023-12-20T12:49:52;9.57;;;1.52;;
32186;SDS011;18686;53.084;8.872;2023-12-20T12:52:21;12.70;;;2.35;;
32186;SDS011;18686;53.084;8.872;2023-12-20T12:54:49;12.80;;;2.20;;
32186;SDS011;18686;53.084;8.872;2023-12-20T12:57:19;12.23;;;1.95;;
32186;SDS011;18686;53.084;8.872;2023-12-20T12:59:48;13.25;;;2.03;;
32186;SDS011;18686;53.084;8.872;2023-12-20T13:02:17;10.32;;;2.00;;
32186;SDS011;18686;53.084;8.872;2023-12-20T13:04:45;15.50;;;2.22;;
32186;SDS011;18686;53.084;8.872;2023-12-20T13:07:13;15.85;;;1.85;;
32186;SDS011;18686;53.084;8.872;2023-12-20T13:09:42;17.52;;;2.05;;
32186;SDS011;18686;53.084;8.872;2023-12-20T13:12:10;21.08;;;2.17;;
32186;SDS011;18686;53.084;8.872;2023-12-20T13:14:40;15.40;;;2.85;;
32186;SDS011;18686;53.084;8.872;2023-12-20T13:17:08;9.32;;;1.80;;
32186;SDS011;18686;53.084;8.872;2023-12-20T13:19:37;9.43;;;2.22;;
32186;SDS011;18686;53.084;8.872;2023-12-20T13:22:06;14.90;;;2.30;;
32186;SDS011;18686;53.084;8.872;2023-12-20T13:24:35;10.93;;;2.08;;
32186;SDS011;18686;53.084;8.872;2023-12-20T13:27:03;13.77;;;2.17;;
32186;SDS011;18686;53.084;8.872;2023-12-20T13:29:33;12.80;;;2.38;;
32186;SDS011;18686;53.084;8.872;2023-12-20T13:32:07;13.68;;;2.05;;
32186;SDS011;18686;53.084;8.872;2023-12-20T13:34:37;10.00;;;1.88;;
32186;SDS011;18686;53.084;8.872;2023-12-20T13:37:06;14.75;;;2.20;;
32186;SDS011;18686;53.084;8.872;2023-12-20T13:39:34;14.48;;;2.30;;
32186;SDS011;18686;53.084;8.872;2023-12-20T13:42:03;15.32;;;2.42;;
32186;SDS011;18686;53.084;8.872;2023-12-20T13:44:31;14.48;;;2.40;;
32186;SDS011;18686;53.084;8.872;2023-12-20T13:47:00;17.27;;;2.17;;
32186;SDS011;18686;53.084;8.872;2023-12-20T13:49:31;14.75;;;2.20;;
32186;SDS011;18686;53.084;8.872;2023-12-20T13:52:00;14.13;;;2.05;;
32186;SDS011;18686;53.084;8.872;2023-12-20T13:54:30;12.25;;;2.05;;
32186;SDS011;18686;53.084;8.872;2023-12-20T13:56:58;15.15;;;2.50;;
32186;SDS011;18686;53.084;8.872;2023-12-20T13:59:42;15.95;;;2.38;;
32186;SDS011;18686;53.084;8.872;2023-12-20T14:02:10;18.85;;;2.17;;
32186;SDS011;18686;53.084;8.872;2023-12-20T14:04:40;14.85;;;2.55;;
32186;SDS011;18686;53.084;8.872;2023-12-20T14:07:09;21.40;;;2.88;;
32186;SDS011;18686;53.084;8.872;2023-12-20T14:09:39;23.23;;;2.70;;
32186;SDS011;18686;53.084;8.872;2023-12-20T14:12:12;19.70;;;2.92;;
32186;SDS011;18686;53.084;8.872;2023-12-20T14:14:41;21.48;;;2.78;;
32186;SDS011;18686;53.084;8.872;2023-12-20T14:17:11;31.30;;;3.78;;
32186;SDS011;18686;53.084;8.872;2023-12-20T14:19:41;26.50;;;2.63;;
32186;SDS011;18686;53.084;8.872;2023-12-20T14:22:09;24.75;;;3.10;;
32186;SDS011;18686;53.084;8.872;2023-12-20T14:24:38;16.92;;;2.85;;
32186;SDS011;18686;53.084;8.872;2023-12-20T14:27:07;26.83;;;3.33;;
32186;SDS011;18686;53.084;8.872;2023-12-20T14:29:35;20.55;;;2.47;;
32186;SDS011;18686;53.084;8.872;2023-12-20T14:32:04;28.33;;;3.08;;
32186;SDS011;18686;53.084;8.872;2023-12-20T14:34:33;27.08;;;3.72;;
32186;SDS011;18686;53.084;8.872;2023-12-20T14:37:03;22.58;;;3.20;;
32186;SDS011;18686;53.084;8.872;2023-12-20T14:39:32;21.75;;;3.67;;
32186;SDS011;18686;53.084;8.872;2023-12-20T14:42:00;32.53;;;4.05;;
32186;SDS011;18686;53.084;8.872;2023-12-20T14:44:28;24.25;;;3.38;;
32186;SDS011;18686;53.084;8.872;2023-12-20T14:46:57;29.30;;;3.65;;
32186;SDS011;18686;53.084;8.872;2023-12-20T14:49:25;24.55;;;3.65;;
32186;SDS011;18686;53.084;8.872;2023-12-20T14:51:53;30.30;;;2.97;;
32186;SDS011;18686;53.084;8.872;2023-12-20T14:54:23;38.83;;;3.40;;
32186;SDS011;18686;53.084;8.872;2023-12-20T14:56:52;30.67;;;3.67;;
32186;SDS011;18686;53.084;8.872;2023-12-20T14:59:20;26.98;;;2.78;;
32186;SDS011;18686;53.084;8.872;2023-12-20T15:01:49;29.73;;;3.50;;
32186;SDS011;18686;53.084;8.872;2023-12-20T15:04:18;19.55;;;2.53;;
32186;SDS011;18686;53.084;8.872;2023-12-20T15:09:20;24.95;;;3.10;;
32186;SDS011;18686;53.084;8.872;2023-12-20T15:11:50;30.95;;;4.10;;
32186;SDS011;18686;53.084;8.872;2023-12-20T15:14:18;28.67;;;3.70;;
32186;SDS011;18686;53.084;8.872;2023-12-20T15:16:47;31.33;;;3.00;;
32186;SDS011;18686;53.084;8.872;2023-12-20T15:19:15;30.63;;;3.10;;
32186;SDS011;18686;53.084;8.872;2023-12-20T15:21:43;22.20;;;3.20;;
32186;SDS011;18686;53.084;8.872;2023-12-20T15:24:13;28.65;;;3.35;;
32186;SDS011;18686;53.084;8.872;2023-12-20T15:26:43;31.23;;;2.95;;
32186;SDS011;18686;53.084;8.872;2023-12-20T15:29:15;24.10;;;3.70;;
32186;SDS011;18686;53.084;8.872;2023-12-20T15:31:43;25.67;;;3.38;;
32186;SDS011;18686;53.084;8.872;2023-12-20T15:34:12;20.73;;;2.92;;
32186;SDS011;18686;53.084;8.872;2023-12-20T15:36:42;22.40;;;2.70;;
32186;SDS011;18686;53.084;8.872;2023-12-20T15:39:11;24.73;;;3.30;;
32186;SDS011;18686;53.084;8.872;2023-12-20T15:41:41;34.83;;;3.60;;
32186;SDS011;18686;53.084;8.872;2023-12-20T15:44:09;32.47;;;4.82;;
32186;SDS011;18686;53.084;8.872;2023-12-20T15:46:39;24.25;;;3.17;;
32186;SDS011;18686;53.084;8.872;2023-12-20T15:49:07;30.63;;;3.38;;
32186;SDS011;18686;53.084;8.872;2023-12-20T15:51:37;26.63;;;3.40;;
32186;SDS011;18686;53.084;8.872;2023-12-20T15:54:05;31.05;;;3.28;;
32186;SDS011;18686;53.084;8.872;2023-12-20T15:56:35;26.15;;;4.20;;
32186;SDS011;18686;53.084;8.872;2023-12-20T15:59:04;25.25;;;4.20;;
32186;SDS011;18686;53.084;8.872;2023-12-20T16:01:32;24.73;;;4.30;;
32186;SDS011;18686;53.084;8.872;2023-12-20T16:04:04;34.25;;;3.38;;
32186;SDS011;18686;53.084;8.872;2023-12-20T16:06:32;23.30;;;3.22;;
32186;SDS011;18686;53.084;8.872;2023-12-20T16:09:02;19.85;;;3.58;;
32186;SDS011;18686;53.084;8.872;2023-12-20T16:11:31;18.67;;;2.45;;
32186;SDS011;18686;53.084;8.872;2023-12-20T16:13:59;21.58;;;2.70;;
32186;SDS011;18686;53.084;8.872;2023-12-20T16:16:28;26.45;;;3.22;;
32186;SDS011;18686;53.084;8.872;2023-12-20T16:18:56;27.00;;;3.35;;
32186;SDS011;18686;53.084;8.872;2023-12-20T16:21:26;29.58;;;3.03;;
32186;SDS011;18686;53.084;8.872;2023-12-20T16:23:54;27.13;;;2.90;;
32186;SDS011;18686;53.084;8.872;2023-12-20T16:26:23;22.02;;;4.13;;
32186;SDS011;18686;53.084;8.872;2023-12-20T16:28:51;27.40;;;2.92;;
32186;SDS011;18686;53.084;8.872;2023-12-20T16:31:20;29.95;;;3.25;;
32186;SDS011;18686;53.084;8.872;2023-12-20T16:33:48;29.13;;;3.47;;
32186;SDS011;18686;53.084;8.872;2023-12-20T16:36:17;29.30;;;3.25;;
32186;SDS011;18686;53.084;8.872;2023-12-20T16:38:48;24.15;;;2.95;;
32186;SDS011;18686;53.084;8.872;2023-12-20T16:41:16;31.80;;;3.25;;
32186;SDS011;18686;53.084;8.872;2023-12-20T16:43:47;26.40;;;2.97;;
32186;SDS011;18686;53.084;8.872;2023-12-20T16:46:15;37.22;;;8.45;;
32186;SDS011;18686;53.084;8.872;2023-12-20T16:48:44;21.85;;;4.35;;
32186;SDS011;18686;53.084;8.872;2023-12-20T16:51:12;28.80;;;3.17;;
32186;SDS011;18686;53.084;8.872;2023-12-20T16:53:40;25.38;;;2.88;;
32186;SDS011;18686;53.084;8.872;2023-12-20T16:56:10;31.70;;;3.35;;
32186;SDS011;18686;53.084;8.872;2023-12-20T16:58:39;15.23;;;3.63;;
32186;SDS011;18686;53.084;8.872;2023-12-20T17:01:07;26.83;;;4.70;;
32186;SDS011;18686;53.084;8.872;2023-12-20T17:03:37;26.48;;;4.38;;
32186;SDS011;18686;53.084;8.872;2023-12-20T17:06:07;25.50;;;3.13;;
32186;SDS011;18686;53.084;8.872;2023-12-20T17:08:36;20.25;;;3.55;;
32186;SDS011;18686;53.084;8.872;2023-12-20T17:11:04;22.77;;;3.30;;
32186;SDS011;18686;53.084;8.872;2023-12-20T17:13:34;27.58;;;3.53;;
32186;SDS011;18686;53.084;8.872;2023-12-20T17:16:02;29.70;;;3.42;;
32186;SDS011;18686;53.084;8.872;2023-12-20T17:18:31;20.17;;;3.13;;
32186;SDS011;18686;53.084;8.872;2023-12-20T17:21:01;23.13;;;2.92;;
32186;SDS011;18686;53.084;8.872;2023-12-20T17:23:30;20.85;;;3.28;;
32186;SDS011;18686;53.084;8.872;2023-12-20T17:25:58;19.70;;;3.03;;
32186;SDS011;18686;53.084;8.872;2023-12-20T17:28:26;18.08;;;2.75;;
32186;SDS011;18686;53.084;8.872;2023-12-20T17:30:56;27.85;;;3.58;;
32186;SDS011;18686;53.084;8.872;2023-12-20T17:33:26;28.25;;;3.92;;
32186;SDS011;18686;53.084;8.872;2023-12-20T17:35:55;26.33;;;3.22;;
32186;SDS011;18686;53.084;8.872;2023-12-20T17:38:23;19.83;;;3.92;;
32186;SDS011;18686;53.084;8.872;2023-12-20T17:40:52;28.63;;;3.72;;
32186;SDS011;18686;53.084;8.872;2023-12-20T17:43:20;21.83;;;3.40;;
32186;SDS011;18686;53.084;8.872;2023-12-20T17:45:48;23.38;;;4.72;;
32186;SDS011;18686;53.084;8.872;2023-12-20T17:48:18;29.83;;;4.18;;
32186;SDS011;18686;53.084;8.872;2023-12-20T17:50:49;24.88;;;3.67;;
32186;SDS011;18686;53.084;8.872;2023-12-20T17:53:18;19.00;;;4.03;;
32186;SDS011;18686;53.084;8.872;2023-12-20T17:55:46;24.85;;;4.05;;
32186;SDS011;18686;53.084;8.872;2023-12-20T17:58:14;28.98;;;3.63;;
32186;SDS011;18686;53.084;8.872;2023-12-20T18:00:46;19.98;;;3.08;;
32186;SDS011;18686;53.084;8.872;2023-12-20T18:03:15;23.60;;;3.33;;
32186;SDS011;18686;53.084;8.872;2023-12-20T18:05:45;35.42;;;4.43;;
32186;SDS011;18686;53.084;8.872;2023-12-20T18:08:13;21.13;;;3.35;;
32186;SDS011;18686;53.084;8.872;2023-12-20T18:10:42;23.05;;;3.88;;
32186;SDS011;18686;53.084;8.872;2023-12-20T18:13:10;26.15;;;3.78;;